createdAt,value
2018-12-01T00:00:07.066Z,76.90
2018-12-01T00:01:07.052Z,79.70
2018-12-01T00:02:07.041Z,80.00
2018-12-01T00:03:07.031Z,79.40
2018-12-01T00:04:07.018Z,78.40
2018-12-01T00:05:07.011Z,83.40
2018-12-01T00:06:07.002Z,81.50
2018-12-01T00:07:06.989Z,74.00
2018-12-01T00:08:06.981Z,79.80
2018-12-01T00:09:06.971Z,83.90
2018-12-01T00:10:06.956Z,86.70
2018-12-01T00:11:06.948Z,82.80
2018-12-01T00:12:06.940Z,83.50
2018-12-01T00:13:06.932Z,85.80
2018-12-01T00:14:06.924Z,84.80
2018-12-01T00:15:06.909Z,81.40
2018-12-01T00:16:06.897Z,79.50
2018-12-01T00:17:06.903Z,86.40
2018-12-01T00:18:06.878Z,89.30
2018-12-01T00:19:06.868Z,89.30
2018-12-01T00:20:06.865Z,86.40
2018-12-01T00:21:06.845Z,85.10
2018-12-01T00:22:06.834Z,83.30
2018-12-01T00:23:06.829Z,87.00
2018-12-01T00:24:06.813Z,86.90
2018-12-01T00:25:06.802Z,83.30
2018-12-01T00:26:06.800Z,89.00
2018-12-01T00:27:06.783Z,87.50
2018-12-01T00:28:06.769Z,90.80
2018-12-01T00:29:06.764Z,96.80
2018-12-01T00:30:06.749Z,94.70
2018-12-01T00:31:06.743Z,96.30
2018-12-01T00:32:06.731Z,90.30
2018-12-01T00:33:06.720Z,86.70
2018-12-01T00:34:06.710Z,86.40
2018-12-01T00:35:06.698Z,87.30
2018-12-01T00:36:06.689Z,81.90
2018-12-01T00:37:06.680Z,90.00
2018-12-01T00:38:06.669Z,92.70
2018-12-01T00:39:06.657Z,92.30
2018-12-01T00:40:06.646Z,88.00
2018-12-01T00:41:06.638Z,91.40
2018-12-01T00:42:06.627Z,92.60
2018-12-01T00:43:06.621Z,90.90
2018-12-01T00:44:06.605Z,92.50
2018-12-01T00:45:06.599Z,81.10
2018-12-01T00:46:06.586Z,86.50
2018-12-01T00:47:06.575Z,84.60
2018-12-01T00:48:06.567Z,85.60
2018-12-01T00:49:06.556Z,88.10
2018-12-01T00:50:06.545Z,85.30
2018-12-01T00:51:06.533Z,90.00
2018-12-01T00:52:06.523Z,86.70
2018-12-01T00:53:06.512Z,88.10
2018-12-01T00:54:06.510Z,78.90
2018-12-01T00:55:06.491Z,80.50
2018-12-01T00:56:06.479Z,90.40
2018-12-01T00:57:06.476Z,83.70
2018-12-01T00:58:06.459Z,87.20
2018-12-01T00:59:06.449Z,81.90
2018-12-01T01:00:06.445Z,90.90
2018-12-01T01:01:06.430Z,84.50
2018-12-01T01:02:06.420Z,82.40
2018-12-01T01:03:06.411Z,91.10
2018-12-01T01:04:06.398Z,91.30
2018-12-01T01:05:06.389Z,79.70
2018-12-01T01:06:06.383Z,78.30
2018-12-01T01:07:06.366Z,86.00
2018-12-01T01:08:06.360Z,90.00
2018-12-01T01:09:06.345Z,85.20
2018-12-01T01:10:06.335Z,85.90
2018-12-01T01:11:06.325Z,83.90
2018-12-01T01:12:06.315Z,87.40
2018-12-01T01:13:06.304Z,86.60
2018-12-01T01:14:06.296Z,83.80
2018-12-01T01:15:06.288Z,83.50
2018-12-01T01:16:06.271Z,81.80
2018-12-01T01:17:06.275Z,82.10
2018-12-01T01:18:06.254Z,80.60
2018-12-01T01:19:06.245Z,79.60
2018-12-01T01:20:06.231Z,83.30
2018-12-01T01:21:06.219Z,83.20
2018-12-01T01:22:06.210Z,76.60
2018-12-01T01:23:06.201Z,77.30
2018-12-01T01:24:06.198Z,80.80
2018-12-01T01:25:06.188Z,79.50
2018-12-01T01:26:06.171Z,79.40
2018-12-01T01:27:06.157Z,74.60
2018-12-01T01:28:06.149Z,78.30
2018-12-01T01:29:06.540Z,82.30
2018-12-01T01:30:06.135Z,80.60
2018-12-01T01:31:06.119Z,78.60
2018-12-01T01:32:06.111Z,88.30
2018-12-01T01:33:06.098Z,83.30
2018-12-01T01:34:06.090Z,83.90
2018-12-01T01:35:06.075Z,77.10
2018-12-01T01:36:06.066Z,82.20
2018-12-01T01:37:06.060Z,86.80
2018-12-01T01:38:06.911Z,80.70
2018-12-01T01:39:06.034Z,84.40
2018-12-01T01:40:06.047Z,80.40
2018-12-01T01:41:06.013Z,82.30
2018-12-01T01:42:06.004Z,84.30
2018-12-01T01:43:05.996Z,84.40
2018-12-01T01:44:05.984Z,82.50
2018-12-01T01:45:05.975Z,82.30
2018-12-01T01:46:05.962Z,88.50
2018-12-01T01:47:05.949Z,85.40
2018-12-01T01:48:05.946Z,79.80
2018-12-01T01:49:05.931Z,84.10
2018-12-01T01:50:05.924Z,88.60
2018-12-01T01:51:05.909Z,82.20
2018-12-01T01:52:05.899Z,83.00
2018-12-01T01:53:05.892Z,83.70
2018-12-01T01:54:05.881Z,84.30
2018-12-01T01:55:05.870Z,88.20
2018-12-01T01:56:05.863Z,86.50
2018-12-01T01:57:05.852Z,84.20
2018-12-01T01:58:05.841Z,89.70
2018-12-01T01:59:05.829Z,82.00
2018-12-01T02:00:05.822Z,88.10
2018-12-01T02:01:06.337Z,88.60
2018-12-01T02:02:05.807Z,91.50
2018-12-01T02:03:05.788Z,84.80
2018-12-01T02:04:05.778Z,85.00
2018-12-01T02:05:05.773Z,92.10
2018-12-01T02:06:05.762Z,91.90
2018-12-01T02:07:05.743Z,94.10
2018-12-01T02:08:05.744Z,94.70
2018-12-01T02:09:05.728Z,90.60
2018-12-01T02:10:05.719Z,93.30
2018-12-01T02:11:05.709Z,92.50
2018-12-01T02:12:05.696Z,88.10
2018-12-01T02:13:05.689Z,97.30
2018-12-01T02:14:05.680Z,86.20
2018-12-01T02:15:05.662Z,89.40
2018-12-01T02:16:05.654Z,93.50
2018-12-01T02:17:05.642Z,94.90
2018-12-01T02:18:05.634Z,94.20
2018-12-01T02:19:05.625Z,93.30
2018-12-01T02:20:05.615Z,89.30
2018-12-01T02:21:05.603Z,91.00
2018-12-01T02:22:05.595Z,91.80
2018-12-01T02:23:05.584Z,95.40
2018-12-01T02:24:05.579Z,92.70
2018-12-01T02:25:05.568Z,90.70
2018-12-01T02:26:05.555Z,92.60
2018-12-01T02:27:05.541Z,98.20
2018-12-01T02:28:05.534Z,98.40
2018-12-01T02:29:05.522Z,107.30
2018-12-01T02:30:05.528Z,102.00
2018-12-01T02:31:05.504Z,112.00
2018-12-01T02:32:05.491Z,104.40
2018-12-01T02:33:05.496Z,105.40
2018-12-01T02:34:05.472Z,110.50
2018-12-01T02:35:05.461Z,99.90
2018-12-01T02:36:05.454Z,102.10
2018-12-01T02:37:05.443Z,102.00
2018-12-01T02:38:05.431Z,99.60
2018-12-01T02:39:05.423Z,101.90
2018-12-01T02:40:05.409Z,108.50
2018-12-01T02:41:05.404Z,108.70
2018-12-01T02:42:05.392Z,106.30
2018-12-01T02:43:05.379Z,110.30
2018-12-01T02:44:05.372Z,112.50
2018-12-01T02:45:05.363Z,106.30
2018-12-01T02:46:05.344Z,110.60
2018-12-01T02:47:05.342Z,106.60
2018-12-01T02:48:05.336Z,102.50
2018-12-01T02:49:05.317Z,110.50
2018-12-01T02:50:05.314Z,112.70
2018-12-01T02:51:05.300Z,107.90
2018-12-01T02:52:05.283Z,110.50
2018-12-01T02:53:05.277Z,109.00
2018-12-01T02:54:05.263Z,115.80
2018-12-01T02:55:05.256Z,106.00
2018-12-01T02:56:05.247Z,103.90
2018-12-01T02:57:05.234Z,109.70
2018-12-01T02:58:05.233Z,113.10
2018-12-01T02:59:05.215Z,106.60
2018-12-01T03:00:05.206Z,115.50
2018-12-01T03:01:05.203Z,117.80
2018-12-01T03:02:05.190Z,118.00
2018-12-01T03:03:05.176Z,116.50
2018-12-01T03:04:05.179Z,123.80
2018-12-01T03:05:05.153Z,122.90
2018-12-01T03:06:05.141Z,125.20
2018-12-01T03:07:05.142Z,129.70
2018-12-01T03:08:05.120Z,134.40
2018-12-01T03:09:05.112Z,134.30
2018-12-01T03:10:05.105Z,132.10
2018-12-01T03:11:05.094Z,139.00
2018-12-01T03:12:05.079Z,130.80
2018-12-01T03:13:05.070Z,134.70
2018-12-01T03:14:05.060Z,138.20
2018-12-01T03:15:05.051Z,143.80
2018-12-01T03:16:05.037Z,139.10
2018-12-01T03:17:05.035Z,136.10
2018-12-01T03:18:05.016Z,146.80
2018-12-01T03:19:05.007Z,131.50
2018-12-01T03:20:04.999Z,130.00
2018-12-01T03:21:04.989Z,136.00
2018-12-01T03:22:04.975Z,137.90
2018-12-01T03:23:04.968Z,156.10
2018-12-01T03:24:04.959Z,129.60
2018-12-01T03:25:04.954Z,152.30
2018-12-01T03:26:04.936Z,141.20
2018-12-01T03:27:04.926Z,141.80
2018-12-01T03:28:04.920Z,147.40
2018-12-01T03:29:04.912Z,155.70
2018-12-01T03:30:04.897Z,171.90
2018-12-01T03:31:04.893Z,153.30
2018-12-01T03:32:04.884Z,150.80
2018-12-01T03:33:04.866Z,142.20
2018-12-01T03:34:04.859Z,137.10
2018-12-01T03:35:04.848Z,157.20
2018-12-01T03:36:04.832Z,143.80
2018-12-01T03:37:04.826Z,132.00
2018-12-01T03:38:04.823Z,131.70
2018-12-01T03:39:04.803Z,162.20
2018-12-01T03:40:04.796Z,153.70
2018-12-01T03:41:04.785Z,145.80
2018-12-01T03:42:04.773Z,161.20
2018-12-01T03:43:04.765Z,155.90
2018-12-01T03:44:04.758Z,154.00
2018-12-01T03:45:04.744Z,143.80
2018-12-01T03:46:04.734Z,160.10
2018-12-01T03:47:04.723Z,153.70
2018-12-01T03:48:04.715Z,155.80
2018-12-01T03:49:04.708Z,144.80
2018-12-01T03:50:04.698Z,142.70
2018-12-01T03:51:04.684Z,162.20
2018-12-01T03:52:04.672Z,177.30
2018-12-01T03:53:04.662Z,180.60
2018-12-01T03:54:04.664Z,168.70
2018-12-01T03:55:04.643Z,162.60
2018-12-01T03:56:04.634Z,168.60
2018-12-01T03:57:04.626Z,157.80
2018-12-01T03:58:04.608Z,161.00
2018-12-01T03:59:04.599Z,168.00
2018-12-01T04:00:04.595Z,170.50
2018-12-01T04:01:04.579Z,169.80
2018-12-01T04:02:04.574Z,172.50
2018-12-01T04:03:04.563Z,165.90
2018-12-01T04:04:04.551Z,158.40
2018-12-01T04:05:04.539Z,172.30
2018-12-01T04:06:04.529Z,204.20
2018-12-01T04:07:04.522Z,194.70
2018-12-01T04:08:04.510Z,198.70
2018-12-01T04:09:04.499Z,169.90
2018-12-01T04:10:04.489Z,186.50
2018-12-01T04:11:04.480Z,197.50
2018-12-01T04:12:04.465Z,182.70
2018-12-01T04:13:04.458Z,176.90
2018-12-01T04:14:04.449Z,162.70
2018-12-01T04:15:04.438Z,162.60
2018-12-01T04:16:04.427Z,168.50
2018-12-01T04:17:04.421Z,172.90
2018-12-01T04:18:04.408Z,176.60
2018-12-01T04:19:04.398Z,171.30
2018-12-01T04:20:04.385Z,174.20
2018-12-01T04:21:04.384Z,202.30
2018-12-01T04:22:04.373Z,169.50
2018-12-01T04:23:04.358Z,171.10
2018-12-01T04:24:04.349Z,166.90
2018-12-01T04:25:04.339Z,183.30
2018-12-01T04:26:04.326Z,166.00
2018-12-01T04:27:04.316Z,179.60
2018-12-01T04:28:04.311Z,178.40
2018-12-01T04:29:04.295Z,186.20
2018-12-01T04:30:04.287Z,192.00
2018-12-01T04:31:04.276Z,167.40
2018-12-01T04:32:04.266Z,170.20
2018-12-01T04:33:04.260Z,158.30
2018-12-01T04:34:04.243Z,159.10
2018-12-01T04:35:04.233Z,185.60
2018-12-01T04:36:04.231Z,191.70
2018-12-01T04:37:04.212Z,211.20
2018-12-01T04:38:04.206Z,174.80
2018-12-01T04:39:04.200Z,184.30
2018-12-01T04:40:04.185Z,164.00
2018-12-01T04:41:04.184Z,186.40
2018-12-01T04:42:04.163Z,177.80
2018-12-01T04:43:04.154Z,185.80
2018-12-01T04:44:04.150Z,190.40
2018-12-01T04:45:04.139Z,192.50
2018-12-01T04:46:04.124Z,186.80
2018-12-01T04:47:04.112Z,208.10
2018-12-01T04:48:04.104Z,182.80
2018-12-01T04:49:04.091Z,193.90
2018-12-01T04:50:04.085Z,177.40
2018-12-01T04:51:04.079Z,165.40
2018-12-01T04:52:04.071Z,172.60
2018-12-01T04:53:04.053Z,194.50
2018-12-01T04:54:04.043Z,183.50
2018-12-01T04:55:04.868Z,190.60
2018-12-01T04:56:04.022Z,179.20
2018-12-01T04:57:04.030Z,186.30
2018-12-01T04:58:04.001Z,186.00
2018-12-01T04:59:03.998Z,191.40
2018-12-01T05:00:03.983Z,169.20
2018-12-01T05:01:03.976Z,166.30
2018-12-01T05:02:03.960Z,177.50
2018-12-01T05:03:03.962Z,175.60
2018-12-01T05:04:03.944Z,178.70
2018-12-01T05:05:03.931Z,176.70
2018-12-01T05:06:03.927Z,167.10
2018-12-01T05:07:03.914Z,180.50
2018-12-01T05:08:03.905Z,186.40
2018-12-01T05:09:03.896Z,182.30
2018-12-01T05:10:03.880Z,187.10
2018-12-01T05:11:03.871Z,172.90
2018-12-01T05:12:03.864Z,167.40
2018-12-01T05:13:03.850Z,180.60
2018-12-01T05:14:03.841Z,158.10
2018-12-01T05:15:04.427Z,154.60
2018-12-01T05:16:03.817Z,184.20
2018-12-01T05:17:03.811Z,156.10
2018-12-01T05:18:03.801Z,173.10
2018-12-01T05:19:03.790Z,192.40
2018-12-01T05:20:03.780Z,191.20
2018-12-01T05:21:03.770Z,159.90
2018-12-01T05:22:03.760Z,180.30
2018-12-01T05:23:03.750Z,183.50
2018-12-01T05:24:03.736Z,181.70
2018-12-01T05:25:03.731Z,170.70
2018-12-01T05:26:03.732Z,153.70
2018-12-01T05:27:03.705Z,165.10
2018-12-01T05:28:03.698Z,171.60
2018-12-01T05:29:03.689Z,181.80
2018-12-01T05:30:03.678Z,162.60
2018-12-01T05:31:03.670Z,188.90
2018-12-01T05:32:03.658Z,176.00
2018-12-01T05:33:03.646Z,155.40
2018-12-01T05:34:03.640Z,168.40
2018-12-01T05:35:03.627Z,164.00
2018-12-01T05:36:03.618Z,163.10
2018-12-01T05:37:03.617Z,158.40
2018-12-01T05:38:03.607Z,152.70
2018-12-01T05:39:03.587Z,165.50
2018-12-01T05:40:03.577Z,171.10
2018-12-01T05:41:03.569Z,164.00
2018-12-01T05:42:03.559Z,172.50
2018-12-01T05:43:03.546Z,159.70
2018-12-01T05:44:03.539Z,172.70
2018-12-01T05:45:03.537Z,158.40
2018-12-01T05:46:03.520Z,153.70
2018-12-01T05:47:03.513Z,164.20
2018-12-01T05:48:03.505Z,169.40
2018-12-01T05:49:03.491Z,170.60
2018-12-01T05:50:03.484Z,148.70
2018-12-01T05:51:03.465Z,168.90
2018-12-01T05:52:03.464Z,141.50
2018-12-01T05:53:03.453Z,175.70
2018-12-01T05:54:03.436Z,166.40
2018-12-01T05:55:03.432Z,174.30
2018-12-01T05:56:03.421Z,174.50
2018-12-01T05:57:03.409Z,190.30
2018-12-01T05:58:03.403Z,168.50
2018-12-01T05:59:03.392Z,142.80
2018-12-01T06:00:03.378Z,189.70
2018-12-01T06:01:03.368Z,184.60
2018-12-01T06:02:03.360Z,161.50
2018-12-01T06:03:03.345Z,172.10
2018-12-01T06:04:03.340Z,180.80
2018-12-01T06:05:03.330Z,171.40
2018-12-01T06:06:03.317Z,180.20
2018-12-01T06:07:03.309Z,191.30
2018-12-01T06:08:03.298Z,197.00
2018-12-01T06:09:03.290Z,185.00
2018-12-01T06:10:03.277Z,193.70
2018-12-01T06:11:03.265Z,181.30
2018-12-01T06:12:03.264Z,188.10
2018-12-01T06:13:03.247Z,197.60
2018-12-01T06:14:03.240Z,182.90
2018-12-01T06:15:03.230Z,174.50
2018-12-01T06:16:03.216Z,159.30
2018-12-01T06:17:03.208Z,216.00
2018-12-01T06:18:03.213Z,209.90
2018-12-01T06:19:03.184Z,175.60
2018-12-01T06:20:03.187Z,195.90
2018-12-01T06:21:03.166Z,170.70
2018-12-01T06:22:03.157Z,192.60
2018-12-01T06:23:03.149Z,172.40
2018-12-01T06:24:03.143Z,170.40
2018-12-01T06:25:03.135Z,191.50
2018-12-01T06:26:03.123Z,171.50
2018-12-01T06:27:03.106Z,185.20
2018-12-01T06:28:03.107Z,171.70
2018-12-01T06:29:03.090Z,170.50
2018-12-01T06:30:03.079Z,168.10
2018-12-01T06:31:03.136Z,174.80
2018-12-01T06:32:03.060Z,168.40
2018-12-01T06:33:03.047Z,181.00
2018-12-01T06:34:03.035Z,174.40
2018-12-01T06:35:03.028Z,153.70
2018-12-01T06:36:03.023Z,154.10
2018-12-01T06:37:03.010Z,171.40
2018-12-01T06:38:02.998Z,160.60
2018-12-01T06:39:02.987Z,161.50
2018-12-01T06:40:02.981Z,163.30
2018-12-01T06:41:02.969Z,139.20
2018-12-01T06:42:02.956Z,144.20
2018-12-01T06:43:02.947Z,142.60
2018-12-01T06:44:02.946Z,141.90
2018-12-01T06:45:02.931Z,153.30
2018-12-01T06:46:02.916Z,151.80
2018-12-01T06:47:02.912Z,147.20
2018-12-01T06:48:02.902Z,136.60
2018-12-01T06:49:02.894Z,130.10
2018-12-01T06:50:02.880Z,142.80
2018-12-01T06:51:02.869Z,145.80
2018-12-01T06:52:02.862Z,144.80
2018-12-01T06:53:02.853Z,154.90
2018-12-01T06:54:02.846Z,144.70
2018-12-01T06:55:02.833Z,135.00
2018-12-01T06:56:02.823Z,137.00
2018-12-01T06:57:02.808Z,156.50
2018-12-01T06:58:02.803Z,142.80
2018-12-01T06:59:02.792Z,140.80
2018-12-01T07:00:02.785Z,138.50
2018-12-01T07:01:02.774Z,149.00
2018-12-01T07:02:02.761Z,137.10
2018-12-01T07:03:02.753Z,129.50
2018-12-01T07:04:02.747Z,138.90
2018-12-01T07:05:02.734Z,147.50
2018-12-01T07:06:02.734Z,143.50
2018-12-01T07:07:02.713Z,129.50
2018-12-01T07:08:02.710Z,143.90
2018-12-01T07:09:02.696Z,139.40
2018-12-01T07:10:02.687Z,130.60
2018-12-01T07:11:02.675Z,150.90
2018-12-01T07:12:02.667Z,137.70
2018-12-01T07:13:02.659Z,138.00
2018-12-01T07:14:02.652Z,133.40
2018-12-01T07:15:02.635Z,135.50
2018-12-01T07:16:02.638Z,135.30
2018-12-01T07:17:02.620Z,145.30
2018-12-01T07:18:02.609Z,129.20
2018-12-01T07:19:02.605Z,119.80
2018-12-01T07:20:02.598Z,129.60
2018-12-01T07:21:02.578Z,125.30
2018-12-01T07:22:02.574Z,125.80
2018-12-01T07:23:02.559Z,143.60
2018-12-01T07:24:02.551Z,133.40
2018-12-01T07:25:02.541Z,121.20
2018-12-01T07:26:02.535Z,120.30
2018-12-01T07:27:02.531Z,120.00
2018-12-01T07:28:02.516Z,126.20
2018-12-01T07:29:02.505Z,129.00
2018-12-01T07:30:02.497Z,131.90
2018-12-01T07:31:02.488Z,120.70
2018-12-01T07:32:02.482Z,126.30
2018-12-01T07:33:02.467Z,115.10
2018-12-01T07:34:02.456Z,122.60
2018-12-01T07:35:02.448Z,110.40
2018-12-01T07:36:02.439Z,112.50
2018-12-01T07:37:02.429Z,117.60
2018-12-01T07:38:02.418Z,112.50
2018-12-01T07:39:02.411Z,108.70
2018-12-01T07:40:02.401Z,123.60
2018-12-01T07:41:02.393Z,113.80
2018-12-01T07:42:02.385Z,116.20
2018-12-01T07:43:02.373Z,118.90
2018-12-01T07:44:02.361Z,110.30
2018-12-01T07:45:02.363Z,110.40
2018-12-01T07:46:02.347Z,111.00
2018-12-01T07:47:02.333Z,110.40
2018-12-01T07:48:02.328Z,109.20
2018-12-01T07:49:02.317Z,107.30
2018-12-01T07:50:02.309Z,112.80
2018-12-01T07:51:02.298Z,107.10
2018-12-01T07:52:02.291Z,113.80
2018-12-01T07:53:02.281Z,114.00
2018-12-01T07:54:02.277Z,107.20
2018-12-01T07:55:02.265Z,104.60
2018-12-01T07:56:02.251Z,112.40
2018-12-01T07:57:02.243Z,103.70
2018-12-01T07:58:02.241Z,107.90
2018-12-01T07:59:02.224Z,108.30
2018-12-01T08:00:02.219Z,108.20
2018-12-01T08:01:02.204Z,104.10
2018-12-01T08:02:02.198Z,112.50
2018-12-01T08:03:02.195Z,118.60
2018-12-01T08:04:02.182Z,114.90
2018-12-01T08:05:02.173Z,107.90
2018-12-01T08:06:02.161Z,106.00
2018-12-01T08:07:02.154Z,111.60
2018-12-01T08:08:02.145Z,113.50
2018-12-01T08:09:02.139Z,120.10
2018-12-01T08:10:02.125Z,107.90
2018-12-01T08:11:02.114Z,116.20
2018-12-01T08:12:02.103Z,110.30
2018-12-01T08:13:02.101Z,110.10
2018-12-01T08:14:02.089Z,111.10
2018-12-01T08:15:02.083Z,108.20
2018-12-01T08:16:02.073Z,113.40
2018-12-01T08:17:02.063Z,114.30
2018-12-01T08:18:02.052Z,107.90
2018-12-01T08:19:02.041Z,108.60
2018-12-01T08:20:02.040Z,112.30
2018-12-01T08:21:02.027Z,109.80
2018-12-01T08:22:02.025Z,103.70
2018-12-01T08:23:02.007Z,108.70
2018-12-01T08:24:02.984Z,102.20
2018-12-01T08:25:01.988Z,113.60
2018-12-01T08:26:01.980Z,113.50
2018-12-01T08:27:01.972Z,111.50
2018-12-01T08:28:01.962Z,109.70
2018-12-01T08:29:01.958Z,106.90
2018-12-01T08:30:01.946Z,108.60
2018-12-01T08:31:01.930Z,116.40
2018-12-01T08:32:01.935Z,118.10
2018-12-01T08:33:01.923Z,115.00
2018-12-01T08:34:01.908Z,111.50
2018-12-01T08:35:01.904Z,116.70
2018-12-01T08:36:01.897Z,117.30
2018-12-01T08:37:01.878Z,122.10
2018-12-01T08:38:01.871Z,119.50
2018-12-01T08:39:01.864Z,124.40
2018-12-01T08:40:02.411Z,124.90
2018-12-01T08:41:02.409Z,131.70
2018-12-01T08:42:01.855Z,116.10
2018-12-01T08:43:01.829Z,121.80
2018-12-01T08:44:01.819Z,114.40
2018-12-01T08:45:01.810Z,119.10
2018-12-01T08:46:01.797Z,103.50
2018-12-01T08:47:01.793Z,104.70
2018-12-01T08:48:01.781Z,100.90
2018-12-01T08:49:01.776Z,102.30
2018-12-01T08:50:01.761Z,100.00
2018-12-01T08:51:01.751Z,98.90
2018-12-01T08:52:01.754Z,98.70
2018-12-01T08:53:01.741Z,101.60
2018-12-01T08:54:01.729Z,102.50
2018-12-01T08:55:01.719Z,95.10
2018-12-01T08:56:01.710Z,92.40
2018-12-01T08:57:01.710Z,92.70
2018-12-01T08:58:01.692Z,94.20
2018-12-01T08:59:01.682Z,83.00
2018-12-01T09:00:01.674Z,82.00
2018-12-01T09:01:01.667Z,81.50
2018-12-01T09:02:01.659Z,85.00
2018-12-01T09:03:01.647Z,89.00
2018-12-01T09:04:01.637Z,79.50
2018-12-01T09:05:01.634Z,73.90
2018-12-01T09:06:01.624Z,72.20
2018-12-01T09:07:01.613Z,73.80
2018-12-01T09:08:01.608Z,75.80
2018-12-01T09:09:01.599Z,68.90
2018-12-01T09:10:01.593Z,71.40
2018-12-01T09:11:01.580Z,71.90
2018-12-01T09:12:01.571Z,71.00
2018-12-01T09:13:01.952Z,66.30
2018-12-01T09:14:01.554Z,65.00
2018-12-01T09:15:01.544Z,69.10
2018-12-01T09:16:01.543Z,67.20
2018-12-01T09:17:01.529Z,72.90
2018-12-01T09:18:01.520Z,71.60
2018-12-01T09:19:01.507Z,66.20
2018-12-01T09:20:01.507Z,69.20
2018-12-01T09:21:01.494Z,64.20
2018-12-01T09:22:01.483Z,60.60
2018-12-01T09:23:01.475Z,60.90
2018-12-01T09:24:01.472Z,64.60
2018-12-01T09:25:01.460Z,62.40
2018-12-01T09:26:01.453Z,64.70
2018-12-01T09:27:01.439Z,61.30
2018-12-01T09:28:01.435Z,65.10
2018-12-01T09:29:01.421Z,62.60
2018-12-01T09:30:01.416Z,65.50
2018-12-01T09:31:01.406Z,65.80
2018-12-01T09:32:01.400Z,68.00
2018-12-01T09:33:01.392Z,68.80
2018-12-01T09:34:01.385Z,67.40
2018-12-01T09:35:01.376Z,77.50
2018-12-01T09:36:01.365Z,66.30
2018-12-01T09:37:01.359Z,70.80
2018-12-01T09:38:01.349Z,69.00
2018-12-01T09:39:01.340Z,76.10
2018-12-01T09:40:01.332Z,72.40
2018-12-01T09:41:01.322Z,73.90
2018-12-01T09:42:01.318Z,77.10
2018-12-01T09:43:01.304Z,78.10
2018-12-01T09:44:01.298Z,84.20
2018-12-01T09:45:01.292Z,82.00
2018-12-01T09:46:01.282Z,78.10
2018-12-01T09:47:01.272Z,75.10
2018-12-01T09:48:01.261Z,71.80
2018-12-01T09:49:01.258Z,71.70
2018-12-01T09:50:01.250Z,63.20
2018-12-01T09:51:01.240Z,61.70
2018-12-01T09:52:01.254Z,66.70
2018-12-01T09:53:01.222Z,64.50
2018-12-01T09:54:01.214Z,62.00
2018-12-01T09:55:01.207Z,61.40
2018-12-01T09:56:01.198Z,59.40
2018-12-01T09:57:01.191Z,54.60
2018-12-01T09:58:01.190Z,53.60
2018-12-01T09:59:01.172Z,56.00
2018-12-01T10:00:01.167Z,53.70
2018-12-01T10:01:01.158Z,52.40
2018-12-01T10:02:01.150Z,53.60
2018-12-01T10:03:01.139Z,58.10
2018-12-01T10:04:01.131Z,54.80
2018-12-01T10:05:01.123Z,52.80
2018-12-01T10:06:01.116Z,54.80
2018-12-01T10:07:01.105Z,52.70
2018-12-01T10:08:01.098Z,56.80
2018-12-01T10:09:01.091Z,54.60
2018-12-01T10:10:02.021Z,52.20
2018-12-01T10:11:01.073Z,50.90
2018-12-01T10:12:01.071Z,51.30
2018-12-01T10:13:01.057Z,48.70
2018-12-01T10:14:01.055Z,52.40
2018-12-01T10:15:01.040Z,51.20
2018-12-01T10:16:01.026Z,51.70
2018-12-01T10:17:01.025Z,50.20
2018-12-01T10:18:01.017Z,48.50
2018-12-01T10:19:01.015Z,52.70
2018-12-01T10:20:00.999Z,52.30
2018-12-01T10:21:00.990Z,47.60
2018-12-01T10:22:00.981Z,50.60
2018-12-01T10:23:00.973Z,46.90
2018-12-01T10:24:00.962Z,46.10
2018-12-01T10:25:00.954Z,48.90
2018-12-01T10:26:00.955Z,47.30
2018-12-01T10:27:01.010Z,47.20
2018-12-01T10:28:00.942Z,50.50
2018-12-01T10:29:00.923Z,51.40
2018-12-01T10:30:00.915Z,50.90
2018-12-01T10:31:00.906Z,54.40
2018-12-01T10:32:00.897Z,51.10
2018-12-01T10:33:00.894Z,46.20
2018-12-01T10:34:00.883Z,47.30
2018-12-01T10:35:00.876Z,47.30
2018-12-01T10:36:00.865Z,48.10
2018-12-01T10:37:00.860Z,46.20
2018-12-01T10:38:00.863Z,43.60
2018-12-01T10:39:03.687Z,45.90
2018-12-01T10:40:00.830Z,49.40
2018-12-01T10:41:00.824Z,47.30
2018-12-01T10:42:03.583Z,43.00
2018-12-01T10:43:00.811Z,42.60
2018-12-01T10:44:00.808Z,40.00
2018-12-01T10:45:00.795Z,39.80
2018-12-01T10:46:00.785Z,43.10
2018-12-01T10:47:00.777Z,43.90
2018-12-01T10:48:00.774Z,41.10
2018-12-01T10:49:00.767Z,40.50
2018-12-01T10:50:00.755Z,39.70
2018-12-01T10:51:00.783Z,38.60
2018-12-01T10:52:00.738Z,43.70
2018-12-01T10:53:00.732Z,40.60
2018-12-01T10:54:00.724Z,40.60
2018-12-01T10:55:00.724Z,40.30
2018-12-01T10:56:00.707Z,39.90
2018-12-01T10:57:00.701Z,37.70
2018-12-01T10:58:00.693Z,37.40
2018-12-01T10:59:00.684Z,39.40
2018-12-01T11:00:00.677Z,39.20
2018-12-01T11:01:00.669Z,41.10
2018-12-01T11:02:00.666Z,38.10
2018-12-01T11:03:00.655Z,41.10
2018-12-01T11:04:00.651Z,39.50
2018-12-01T11:05:00.639Z,40.00
2018-12-01T11:06:00.638Z,38.10
2018-12-01T11:07:00.622Z,36.80
2018-12-01T11:08:00.667Z,37.40
2018-12-01T11:09:00.607Z,39.80
2018-12-01T11:10:00.600Z,37.20
2018-12-01T11:11:00.594Z,36.90
2018-12-01T11:12:00.586Z,38.40
2018-12-01T11:13:00.578Z,37.00
2018-12-01T11:14:00.569Z,36.40
2018-12-01T11:15:00.560Z,37.20
2018-12-01T11:16:00.553Z,35.70
2018-12-01T11:17:00.552Z,37.10
2018-12-01T11:18:00.537Z,35.70
2018-12-01T11:19:00.529Z,35.60
2018-12-01T11:20:00.528Z,37.10
2018-12-01T11:21:00.521Z,36.60
2018-12-01T11:22:00.507Z,37.90
2018-12-01T11:23:00.502Z,35.70
2018-12-01T11:24:00.493Z,38.40
2018-12-01T11:25:00.487Z,38.40
2018-12-01T11:26:00.479Z,36.90
2018-12-01T11:27:00.471Z,36.90
2018-12-01T11:28:00.469Z,36.90
2018-12-01T11:29:00.455Z,36.50
2018-12-01T11:30:00.447Z,39.20
2018-12-01T11:31:00.441Z,37.40
2018-12-01T11:32:00.435Z,36.20
2018-12-01T11:33:00.426Z,36.60
2018-12-01T11:34:00.417Z,37.10
2018-12-01T11:35:00.410Z,35.60
2018-12-01T11:36:00.405Z,34.00
2018-12-01T11:37:00.398Z,33.80
2018-12-01T11:38:00.390Z,34.80
2018-12-01T11:39:00.381Z,32.80
2018-12-01T11:40:00.375Z,33.10
2018-12-01T11:41:00.373Z,32.10
2018-12-01T11:42:00.507Z,32.70
2018-12-01T11:43:00.356Z,31.50
2018-12-01T11:44:00.347Z,31.40
2018-12-01T11:45:00.340Z,30.50
2018-12-01T11:46:00.330Z,31.10
2018-12-01T11:47:00.951Z,29.50
2018-12-01T11:48:00.316Z,30.10
2018-12-01T11:49:00.310Z,30.00
2018-12-01T11:50:00.307Z,31.10
2018-12-01T11:51:00.301Z,30.60
2018-12-01T11:52:00.286Z,27.50
2018-12-01T11:53:00.280Z,29.00
2018-12-01T11:54:00.278Z,28.00
2018-12-01T11:55:00.269Z,27.20
2018-12-01T11:56:00.261Z,29.10
2018-12-01T11:57:00.251Z,28.80
2018-12-01T11:58:00.245Z,27.50
2018-12-01T11:59:00.237Z,28.00
2018-12-01T12:00:00.228Z,27.20
2018-12-01T12:01:00.226Z,29.60
2018-12-01T12:02:00.707Z,28.20
2018-12-01T12:03:00.211Z,26.90
2018-12-01T12:04:00.204Z,28.50
2018-12-01T12:05:00.197Z,29.90
2018-12-01T12:06:00.191Z,28.70
2018-12-01T12:07:00.188Z,28.30
2018-12-01T12:08:00.176Z,27.80
2018-12-01T12:09:00.168Z,27.80
2018-12-01T12:10:00.165Z,28.80
2018-12-01T12:11:00.157Z,29.10
2018-12-01T12:12:00.150Z,29.10
2018-12-01T12:13:00.141Z,28.60
2018-12-01T12:14:00.134Z,30.30
2018-12-01T12:15:00.130Z,30.20
2018-12-01T12:16:00.121Z,29.70
2018-12-01T12:17:00.113Z,28.80
2018-12-01T12:18:00.112Z,31.60
2018-12-01T12:19:00.096Z,31.70
2018-12-01T12:20:00.095Z,29.00
2018-12-01T12:21:00.086Z,29.60
2018-12-01T12:22:00.077Z,30.50
2018-12-01T12:23:00.070Z,31.60
2018-12-01T12:24:00.067Z,32.10
2018-12-01T12:25:00.056Z,30.40
2018-12-01T12:26:00.062Z,30.10
2018-12-01T12:27:00.040Z,31.20
2018-12-01T12:28:00.038Z,30.60
2018-12-01T12:29:00.027Z,33.10
2018-12-01T12:30:00.026Z,29.50
2018-12-01T12:31:00.017Z,29.80
2018-12-01T12:32:00.008Z,30.20
2018-12-01T12:33:00.002Z,31.30
2018-12-01T12:33:59.995Z,32.60
2018-12-01T12:34:59.988Z,32.10
2018-12-01T12:35:59.983Z,34.70
2018-12-01T12:36:59.975Z,32.20
2018-12-01T12:37:59.965Z,32.50
2018-12-01T12:38:59.956Z,33.90
2018-12-01T12:39:59.951Z,32.40